Decoded Metar for LEAG (Algeciras in SPAIN) (IATA:N/A) | Meteo·Mobile Aviation Weather
aviador You're here:

LEAG Decoded Metar

Algeciras in SPAIN
Report Time2018-08-14 10:30:00
UTC Time2018-08-14 10:56:59
Flight Rules vfr VFR
WindVRB at 04 kt
Visibility9999 m
Phenomena:N/A
Clouds:N/A
Expected CloudBase > 6,400 ft AGL from Temp-Dew spread
CeilingNone
Temp29°C
Dew Point13°C (37% RH)
Heat Index28.4°C
AAT28.4°C
QNH1017 hPa
Raw Report
METAR LEAG 141030Z AUTO VRB04KT CAVOK 29/13 Q1017=

Extra information for LEAG:More info

Metar Taf Metar & Taf Last 4 Metars F.Rules Stats Wind Profile Meteogram Temp Stats Airport Information Weather charts Add Link Nearby VenuesMetar ALERT Operation Metar Decoded Social comments